Time;durP1;ratioP1;P1;durP2;ratioP2;P2;SDS_P1;SDS_P2;PMS_P1;PMS_P2;Temp;Humidity;BMP_temperature;BMP_pressure;BME280_temperature;BME280_humidity;BME280_pressure;Samples;Min_cycle;Max_cycle;Signal;HPM_P1;HPM_P2
2023/09/21 00:01:19;;;;;;;2.92;1.63;;;21.00;56.90;;;;;;4988921;28;20048;-51
2023/09/21 00:03:47;;;;;;;1.85;1.55;;;20.90;57.00;;;;;;4982389;28;20416;-49
2023/09/21 00:06:18;;;;;;;3.30;1.30;;;20.90;57.00;;;;;;4981068;28;20049;-50
2023/09/21 00:08:48;;;;;;;1.20;1.10;;;20.90;57.00;;;;;;4988050;28;20081;-50
2023/09/21 00:11:17;;;;;;;3.20;1.88;;;20.90;56.90;;;;;;4984962;28;20492;-51
2023/09/21 00:13:49;;;;;;;1.48;1.30;;;20.90;57.00;;;;;;4989237;28;20125;-50
2023/09/21 00:16:18;;;;;;;3.85;1.67;;;20.90;57.10;;;;;;4987843;28;20126;-51
2023/09/21 00:18:46;;;;;;;1.70;1.50;;;20.90;57.20;;;;;;4983571;28;20047;-50
2023/09/21 00:21:14;;;;;;;1.70;1.50;;;20.90;57.30;;;;;;4991634;28;20500;-49
2023/09/21 00:23:43;;;;;;;2.22;1.75;;;20.90;57.40;;;;;;4987214;28;20401;-51
2023/09/21 00:26:14;;;;;;;2.17;1.60;;;20.90;57.30;;;;;;4990695;28;20049;-46
2023/09/21 00:28:46;;;;;;;1.92;1.38;;;20.90;57.50;;;;;;4989244;28;20054;-50
2023/09/21 00:31:13;;;;;;;1.92;1.35;;;20.90;57.50;;;;;;4992480;28;20121;-48
2023/09/21 00:33:41;;;;;;;2.58;1.40;;;20.90;57.40;;;;;;4990277;28;20058;-50
2023/09/21 00:36:16;;;;;;;2.72;1.50;;;20.90;57.40;;;;;;4982865;28;20105;-52
2023/09/21 00:38:44;;;;;;;3.00;1.83;;;20.90;57.60;;;;;;4991036;28;20043;-52
2023/09/21 00:41:14;;;;;;;3.03;1.67;;;20.90;57.40;;;;;;4990339;28;20050;-47
2023/09/21 00:43:41;;;;;;;3.00;1.13;;;20.80;57.50;;;;;;4982933;28;20042;-52
2023/09/21 00:46:09;;;;;;;1.40;1.30;;;20.90;57.70;;;;;;4989975;28;20496;-52
2023/09/21 00:48:42;;;;;;;2.38;1.50;;;20.90;57.90;;;;;;4983734;28;20054;-50
2023/09/21 00:51:14;;;;;;;2.28;1.67;;;20.90;57.80;;;;;;4995121;28;20516;-48
2023/09/21 00:53:45;;;;;;;1.50;1.30;;;20.80;57.90;;;;;;4984140;28;20600;-47
2023/09/21 00:56:18;;;;;;;2.72;1.58;;;20.80;57.90;;;;;;4980703;28;20266;-52
2023/09/21 00:58:57;;;;;;;2.75;1.25;;;20.80;58.00;;;;;;4989434;28;20061;-48
2023/09/21 01:01:29;;;;;;;2.63;1.35;;;20.80;57.90;;;;;;4974254;28;20042;-52
2023/09/21 01:04:06;;;;;;;1.38;1.20;;;20.80;57.90;;;;;;4985286;28;20042;-51
2023/09/21 01:06:33;;;;;;;1.65;1.20;;;20.80;58.00;;;;;;4978072;28;20119;-51
2023/09/21 01:09:07;;;;;;;3.20;1.83;;;20.80;58.00;;;;;;4988871;28;20547;-48
2023/09/21 01:11:39;;;;;;;1.23;1.10;;;20.80;58.00;;;;;;4989925;28;20566;-49
2023/09/21 01:14:08;;;;;;;2.05;1.20;;;20.80;58.10;;;;;;4985923;28;20468;-51
2023/09/21 01:16:38;;;;;;;1.40;1.30;;;20.80;58.10;;;;;;4989920;28;20152;-52
2023/09/21 01:19:07;;;;;;;2.03;1.65;;;20.80;58.30;;;;;;4986112;28;20049;-49
2023/09/21 01:21:40;;;;;;;2.53;1.67;;;20.70;58.10;;;;;;4989357;28;20061;-52
2023/09/21 01:24:12;;;;;;;1.70;1.50;;;20.70;58.20;;;;;;4988799;28;20528;-50
2023/09/21 01:26:41;;;;;;;3.42;1.90;;;20.70;58.30;;;;;;4991206;28;20125;-49
2023/09/21 01:29:14;;;;;;;2.42;1.92;;;20.70;58.30;;;;;;4986492;28;20049;-49
2023/09/21 01:31:43;;;;;;;2.35;1.70;;;20.70;58.10;;;;;;4982778;28;20057;-47
2023/09/21 01:34:12;;;;;;;2.60;1.67;;;20.70;58.10;;;;;;4984170;28;20052;-50
2023/09/21 01:36:43;;;;;;;2.92;1.40;;;20.70;58.20;;;;;;4973398;28;20046;-49
2023/09/21 01:39:12;;;;;;;1.67;1.55;;;20.70;58.40;;;;;;4978419;28;20113;-47
2023/09/21 01:41:39;;;;;;;1.55;1.38;;;20.70;58.30;;;;;;4989284;28;20047;-50
2023/09/21 01:44:06;;;;;;;1.52;1.42;;;20.70;58.20;;;;;;4985727;28;20110;-52
2023/09/21 01:46:34;;;;;;;2.20;2.00;;;20.60;58.20;;;;;;4983807;28;20086;-48
2023/09/21 01:49:04;;;;;;;1.60;1.40;;;20.60;58.40;;;;;;4972691;28;20534;-50
2023/09/21 01:51:31;;;;;;;4.32;1.88;;;20.60;58.40;;;;;;4989416;28;20508;-51
2023/09/21 01:54:00;;;;;;;1.80;1.58;;;20.60;58.50;;;;;;4986299;28;20073;-51
2023/09/21 01:56:33;;;;;;;2.47;2.03;;;20.60;58.40;;;;;;4984252;28;20042;-52
2023/09/21 01:59:00;;;;;;;2.45;2.00;;;20.60;58.60;;;;;;4978063;28;20046;-52
2023/09/21 02:01:27;;;;;;;3.10;1.90;;;20.60;58.60;;;;;;4986200;28;20412;-48
2023/09/21 02:03:54;;;;;;;2.35;1.98;;;20.60;58.70;;;;;;4981558;28;20412;-52
2023/09/21 02:06:21;;;;;;;2.85;1.70;;;20.60;58.70;;;;;;4988705;28;20050;-49
2023/09/21 02:08:49;;;;;;;1.98;1.48;;;20.50;58.80;;;;;;4988319;28;20117;-52
2023/09/21 02:11:22;;;;;;;2.97;1.70;;;20.50;58.80;;;;;;4983040;28;20102;-48
2023/09/21 02:13:48;;;;;;;2.75;1.35;;;20.50;58.90;;;;;;4983364;28;20084;-52
2023/09/21 02:16:25;;;;;;;1.90;1.55;;;20.50;58.90;;;;;;4986688;28;20107;-51
2023/09/21 02:18:55;;;;;;;2.30;1.48;;;20.50;59.50;;;;;;4986031;28;20043;-50
2023/09/21 02:21:22;;;;;;;1.98;1.70;;;20.40;59.10;;;;;;4987425;28;20393;-52
2023/09/21 02:23:50;;;;;;;2.17;1.48;;;20.40;59.70;;;;;;4996064;28;20077;-53
2023/09/21 02:26:17;;;;;;;1.52;1.40;;;20.40;59.20;;;;;;4989095;28;20038;-50
2023/09/21 02:28:43;;;;;;;2.75;1.60;;;20.30;59.10;;;;;;4981420;28;20106;-50
2023/09/21 02:31:12;;;;;;;1.60;1.27;;;20.30;59.20;;;;;;4984413;28;20054;-50
2023/09/21 02:33:42;;;;;;;1.33;1.23;;;20.30;59.30;;;;;;4987571;28;20042;-50
2023/09/21 02:36:19;;;;;;;2.15;1.33;;;20.20;59.30;;;;;;4984303;28;20768;-51
2023/09/21 02:38:46;;;;;;;2.25;1.20;;;20.20;59.60;;;;;;4984613;28;20043;-51
2023/09/21 02:41:14;;;;;;;2.88;1.38;;;20.30;59.50;;;;;;4988329;28;20081;-53
2023/09/21 02:43:40;;;;;;;1.48;1.27;;;20.20;59.60;;;;;;4999494;28;20074;-50
2023/09/21 02:46:11;;;;;;;1.65;1.30;;;20.20;59.60;;;;;;4984704;28;20456;-53
2023/09/21 02:48:38;;;;;;;3.05;1.40;;;20.20;59.60;;;;;;4987550;28;20046;-53
2023/09/21 02:51:09;;;;;;;1.40;1.27;;;20.20;59.80;;;;;;4983013;28;20083;-49
2023/09/21 02:53:44;;;;;;;2.50;1.40;;;20.10;59.90;;;;;;4983962;28;20046;-52
2023/09/21 02:56:19;;;;;;;1.75;1.48;;;20.10;59.60;;;;;;4980896;28;20070;-52
2023/09/21 02:58:52;;;;;;;1.65;1.45;;;20.10;59.60;;;;;;4981949;28;20161;-50
2023/09/21 03:01:20;;;;;;;1.75;1.33;;;20.10;59.70;;;;;;4985191;28;20113;-52
2023/09/21 03:03:49;;;;;;;1.55;1.13;;;20.10;59.90;;;;;;4984918;28;20097;-53
2023/09/21 03:06:18;;;;;;;3.13;1.35;;;20.10;59.90;;;;;;4985634;28;20066;-51
2023/09/21 03:08:49;;;;;;;2.67;1.70;;;20.10;59.80;;;;;;4988714;28;20039;-51
2023/09/21 03:11:15;;;;;;;5.65;1.70;;;20.10;59.90;;;;;;4981165;28;20046;-51
2023/09/21 03:13:48;;;;;;;2.65;1.40;;;20.10;60.00;;;;;;4979793;28;20047;-51
2023/09/21 03:16:28;;;;;;;1.92;1.00;;;20.10;60.10;;;;;;4998143;28;20050;-51
2023/09/21 03:18:57;;;;;;;2.10;1.58;;;20.10;60.00;;;;;;4986310;28;20039;-52
2023/09/21 03:21:27;;;;;;;1.95;1.70;;;20.10;60.20;;;;;;4972489;28;20042;-52
2023/09/21 03:23:54;;;;;;;4.15;1.30;;;20.10;60.20;;;;;;4987311;28;20042;-49
2023/09/21 03:26:21;;;;;;;2.33;1.60;;;20.00;60.10;;;;;;4985556;28;20416;-52
2023/09/21 03:28:58;;;;;;;3.03;1.52;;;20.00;60.20;;;;;;4986588;28;20764;-52
2023/09/21 03:31:25;;;;;;;1.70;1.20;;;20.00;60.20;;;;;;4982398;28;20047;-51
2023/09/21 03:34:00;;;;;;;2.60;1.63;;;20.00;60.20;;;;;;4988511;28;20046;-50
2023/09/21 03:36:29;;;;;;;2.55;1.33;;;20.00;60.40;;;;;;4985219;28;20043;-52
2023/09/21 03:39:10;;;;;;;3.80;1.50;;;20.00;60.30;;;;;;4990909;28;20065;-52
2023/09/21 03:41:37;;;;;;;1.77;1.60;;;20.00;60.40;;;;;;4992318;28;20045;-51
2023/09/21 03:44:05;;;;;;;2.33;1.30;;;20.00;60.70;;;;;;4987370;28;20034;-51
2023/09/21 03:46:33;;;;;;;1.63;1.35;;;19.90;60.40;;;;;;4983535;28;20046;-51
2023/09/21 03:48:59;;;;;;;2.58;1.42;;;19.90;60.60;;;;;;4989036;28;20141;-52
2023/09/21 03:51:28;;;;;;;2.53;1.83;;;19.90;60.70;;;;;;4989766;28;20522;-49
2023/09/21 03:53:59;;;;;;;3.67;1.75;;;19.90;60.70;;;;;;4986868;28;20488;-50
2023/09/21 03:56:36;;;;;;;1.65;1.25;;;19.90;61.40;;;;;;4989397;28;20536;-52
2023/09/21 03:59:06;;;;;;;3.28;1.50;;;19.90;60.70;;;;;;4990043;28;20101;-51
2023/09/21 04:01:37;;;;;;;1.70;1.27;;;19.90;60.70;;;;;;4990881;28;20058;-50
2023/09/21 04:04:09;;;;;;;1.45;1.33;;;19.90;60.80;;;;;;4987648;28;20031;-48
2023/09/21 04:06:40;;;;;;;1.80;1.20;;;19.90;60.90;;;;;;4986529;28;20480;-49
2023/09/21 04:09:12;;;;;;;3.67;1.60;;;19.90;61.10;;;;;;4991431;28;20046;-51
2023/09/21 04:11:42;;;;;;;2.20;1.33;;;19.90;60.90;;;;;;4987108;28;20046;-52
2023/09/21 04:14:15;;;;;;;2.20;1.40;;;19.90;60.90;;;;;;4983571;28;20504;-47
2023/09/21 04:16:49;;;;;;;2.17;1.50;;;19.90;60.90;;;;;;4986750;28;20054;-51
2023/09/21 04:19:16;;;;;;;2.70;1.35;;;19.90;61.10;;;;;;4981315;28;20058;-51
2023/09/21 04:21:46;;;;;;;2.08;1.33;;;19.90;61.10;;;;;;4976148;28;20047;-49
2023/09/21 04:24:13;;;;;;;2.15;1.27;;;19.90;61.10;;;;;;4990274;28;20065;-50
2023/09/21 04:26:41;;;;;;;2.30;1.75;;;19.90;61.20;;;;;;4986367;28;20592;-52
2023/09/21 04:29:08;;;;;;;1.40;1.30;;;19.80;61.40;;;;;;4989303;28;20042;-48
2023/09/21 04:31:43;;;;;;;1.95;1.55;;;19.80;61.50;;;;;;4987726;28;20664;-51
2023/09/21 04:34:10;;;;;;;1.85;1.42;;;19.90;61.50;;;;;;4987477;28;20050;-48
2023/09/21 04:36:37;;;;;;;2.85;1.58;;;19.80;61.50;;;;;;4982302;28;20098;-50
2023/09/21 04:39:08;;;;;;;1.83;1.45;;;19.80;61.50;;;;;;4989866;28;20035;-51
2023/09/21 04:41:40;;;;;;;2.67;1.83;;;19.80;61.60;;;;;;4991441;28;20034;-52
2023/09/21 04:44:09;;;;;;;1.70;1.58;;;19.80;61.60;;;;;;4986185;28;20042;-51
2023/09/21 04:46:39;;;;;;;2.38;1.60;;;19.80;61.70;;;;;;4987383;28;20057;-50
2023/09/21 04:49:06;;;;;;;3.58;1.50;;;19.80;61.90;;;;;;4988444;28;20046;-47
2023/09/21 04:51:34;;;;;;;2.38;1.45;;;19.80;61.90;;;;;;4987677;28;20042;-49
2023/09/21 04:54:03;;;;;;;1.48;1.20;;;19.80;61.90;;;;;;4986995;28;20651;-48
2023/09/21 04:56:30;;;;;;;1.67;1.58;;;19.80;62.10;;;;;;4989013;28;20074;-51
2023/09/21 04:58:56;;;;;;;1.98;1.67;;;19.80;62.00;;;;;;4987994;28;20038;-51
2023/09/21 05:01:25;;;;;;;1.75;1.50;;;19.80;61.90;;;;;;4989035;28;20041;-52
2023/09/21 05:03:52;;;;;;;1.98;1.50;;;19.90;62.10;;;;;;4985732;28;20055;-51
2023/09/21 05:06:19;;;;;;;4.07;1.40;;;19.90;62.10;;;;;;4989081;28;20034;-51
2023/09/21 05:08:46;;;;;;;2.42;1.63;;;19.90;62.00;;;;;;4986052;28;20409;-51
2023/09/21 05:11:13;;;;;;;2.15;1.70;;;19.90;62.10;;;;;;4987004;28;20516;-51
2023/09/21 05:13:40;;;;;;;3.35;2.10;;;19.90;62.20;;;;;;4979854;28;20178;-52
2023/09/21 05:16:10;;;;;;;1.85;1.63;;;19.90;62.10;;;;;;4988606;28;20564;-48
2023/09/21 05:18:36;;;;;;;2.95;1.70;;;20.00;62.10;;;;;;4990483;28;20051;-51
2023/09/21 05:21:04;;;;;;;2.67;1.40;;;20.00;62.00;;;;;;4991441;28;20130;-52
2023/09/21 05:23:31;;;;;;;2.67;1.70;;;20.00;62.40;;;;;;4990569;28;20061;-51
2023/09/21 05:25:59;;;;;;;2.42;1.80;;;20.00;62.30;;;;;;4986618;28;20042;-51
2023/09/21 05:28:26;;;;;;;2.10;1.38;;;20.00;62.30;;;;;;4985080;28;20572;-51
2023/09/21 05:30:54;;;;;;;1.85;1.30;;;20.10;62.30;;;;;;4991168;28;20449;-52
2023/09/21 05:33:21;;;;;;;1.40;1.27;;;20.10;62.40;;;;;;4988099;28;20070;-51
2023/09/21 05:35:53;;;;;;;4.15;1.63;;;20.10;62.40;;;;;;4985957;28;20046;-50
2023/09/21 05:38:20;;;;;;;;;;;20.10;62.80;;;;;;4987540;28;20043;-48
2023/09/21 05:40:47;;;;;;;1.67;1.58;;;20.20;62.30;;;;;;4988163;28;20020;-52
2023/09/21 05:43:15;;;;;;;3.03;2.10;;;20.20;62.20;;;;;;4979368;28;20085;-51
2023/09/21 05:45:42;;;;;;;2.50;1.65;;;20.20;62.30;;;;;;4987261;28;20045;-52
2023/09/21 05:48:14;;;;;;;2.83;1.60;;;20.20;62.30;;;;;;4986623;28;20057;-51
2023/09/21 05:50:42;;;;;;;2.83;1.70;;;20.30;62.40;;;;;;4990454;28;20719;-51
2023/09/21 05:53:08;;;;;;;4.78;1.83;;;20.30;62.50;;;;;;4986912;28;20098;-51
2023/09/21 05:55:36;;;;;;;1.50;1.40;;;20.30;63.30;;;;;;4985173;28;20109;-47
2023/09/21 05:58:04;;;;;;;1.85;1.73;;;20.30;62.60;;;;;;4989544;28;20508;-50
2023/09/21 06:00:32;;;;;;;2.65;1.90;;;20.40;62.80;;;;;;4990231;28;20564;-46
2023/09/21 06:03:00;;;;;;;1.40;1.20;;;20.40;62.90;;;;;;4979813;28;20049;-51
2023/09/21 06:05:27;;;;;;;2.40;1.55;;;20.40;62.90;;;;;;4984422;28;20417;-47
2023/09/21 06:07:58;;;;;;;1.92;1.67;;;20.50;63.10;;;;;;4986364;28;20500;-50
2023/09/21 06:10:30;;;;;;;4.88;1.65;;;20.60;62.90;;;;;;4990196;28;20076;-52
2023/09/21 06:12:57;;;;;;;1.70;1.48;;;20.60;62.90;;;;;;4986519;28;20094;-51
2023/09/21 06:15:23;;;;;;;4.78;2.40;;;20.60;62.70;;;;;;4985040;28;20069;-51
2023/09/21 06:17:50;;;;;;;2.50;1.80;;;20.70;62.60;;;;;;4986343;28;20540;-49
2023/09/21 06:20:18;;;;;;;3.17;2.10;;;20.70;62.50;;;;;;4988863;28;20041;-49
2023/09/21 06:22:46;;;;;;;3.38;1.95;;;20.70;62.40;;;;;;4984560;28;20573;-49
2023/09/21 06:25:13;;;;;;;2.25;1.70;;;20.80;62.60;;;;;;4989789;28;20046;-52
2023/09/21 06:27:41;;;;;;;2.58;1.90;;;20.80;62.60;;;;;;4986406;28;20501;-50
2023/09/21 06:30:10;;;;;;;3.03;2.13;;;20.90;62.80;;;;;;4988227;28;20050;-51
2023/09/21 06:32:37;;;;;;;2.00;1.80;;;20.90;62.80;;;;;;4989876;28;20527;-49
2023/09/21 06:35:05;;;;;;;2.30;1.67;;;20.90;62.70;;;;;;4987177;28;20042;-49
2023/09/21 06:37:34;;;;;;;1.67;1.50;;;21.00;62.80;;;;;;4986439;28;20048;-50
2023/09/21 06:40:00;;;;;;;3.35;1.70;;;21.00;62.70;;;;;;4987511;28;20062;-52
2023/09/21 06:42:27;;;;;;;2.40;1.50;;;21.10;62.70;;;;;;4986963;28;20489;-50
2023/09/21 06:44:54;;;;;;;2.30;1.85;;;21.10;62.60;;;;;;4984938;28;20043;-49
2023/09/21 06:47:23;;;;;;;2.05;1.80;;;21.20;62.70;;;;;;4984816;28;20058;-50
2023/09/21 06:49:53;;;;;;;3.30;1.83;;;21.20;62.80;;;;;;4987061;28;20056;-52
2023/09/21 06:52:23;;;;;;;4.43;1.95;;;21.30;62.70;;;;;;4989795;28;20101;-48
2023/09/21 06:54:49;;;;;;;3.40;1.60;;;21.30;62.50;;;;;;4974206;28;20134;-51
2023/09/21 06:57:23;;;;;;;4.07;1.90;;;21.30;62.50;;;;;;4987475;28;20047;-51
2023/09/21 06:59:51;;;;;;;1.95;1.65;;;21.30;62.30;;;;;;4988741;28;20042;-51
2023/09/21 07:02:18;;;;;;;3.45;2.28;;;21.40;62.20;;;;;;4989251;28;20042;-52
2023/09/21 07:04:45;;;;;;;3.75;2.00;;;21.40;62.00;;;;;;4984580;28;20064;-50
2023/09/21 07:07:15;;;;;;;2.30;2.10;;;21.50;61.90;;;;;;4988837;28;20069;-49
2023/09/21 07:09:44;;;;;;;4.10;2.38;;;21.50;62.00;;;;;;4992665;28;20065;-51
2023/09/21 07:12:12;;;;;;;4.82;2.72;;;21.60;61.90;;;;;;4992345;28;20046;-51
2023/09/21 07:14:39;;;;;;;3.40;3.10;;;21.60;62.10;;;;;;4989027;28;20077;-52
2023/09/21 07:17:06;;;;;;;4.07;2.88;;;21.60;62.00;;;;;;4993191;28;20050;-52
2023/09/21 07:19:36;;;;;;;3.03;2.75;;;21.70;61.80;;;;;;4990845;28;20046;-50
2023/09/21 07:22:04;;;;;;;3.75;2.35;;;21.70;61.90;;;;;;4987539;28;20060;-51
2023/09/21 07:24:31;;;;;;;5.82;2.72;;;21.80;61.60;;;;;;4992876;28;20042;-49
2023/09/21 07:27:01;;;;;;;3.03;1.77;;;21.80;61.60;;;;;;4989827;28;20038;-50
2023/09/21 07:29:30;;;;;;;10.35;2.03;;;21.80;61.50;;;;;;4989553;28;20122;-48
2023/09/21 07:31:59;;;;;;;2.60;1.83;;;21.90;61.60;;;;;;4992791;28;20563;-50
2023/09/21 07:34:25;;;;;;;2.20;1.75;;;21.90;61.80;;;;;;4990459;28;20034;-51
2023/09/21 07:36:52;;;;;;;3.33;2.65;;;21.90;61.80;;;;;;4990295;28;20101;-51
2023/09/21 07:39:19;;;;;;;4.50;3.05;;;21.90;61.70;;;;;;4992517;28;20114;-50
2023/09/21 07:41:46;;;;;;;3.10;2.88;;;21.90;61.90;;;;;;4993071;28;20400;-51
2023/09/21 07:44:16;;;;;;;5.97;3.50;;;22.00;62.00;;;;;;4985914;28;20038;-47
2023/09/21 07:46:42;;;;;;;5.05;2.67;;;22.00;61.90;;;;;;4988181;28;20097;-52
2023/09/21 07:49:09;;;;;;;5.78;3.40;;;22.00;62.00;;;;;;4990206;28;20057;-49
2023/09/21 07:51:36;;;;;;;8.07;3.25;;;22.00;62.00;;;;;;4993624;28;20108;-51
2023/09/21 07:54:06;;;;;;;3.65;2.33;;;22.10;62.00;;;;;;4989555;28;20468;-50
2023/09/21 07:56:36;;;;;;;3.80;2.22;;;22.10;62.00;;;;;;4990655;28;20061;-51
2023/09/21 07:59:06;;;;;;;4.82;3.30;;;22.10;62.60;;;;;;4985011;28;20047;-52
2023/09/21 08:01:33;;;;;;;3.53;1.90;;;22.20;62.00;;;;;;4984666;28;20043;-51
2023/09/21 08:03:59;;;;;;;4.80;2.70;;;22.20;61.90;;;;;;4987857;28;20054;-51
2023/09/21 08:06:28;;;;;;;5.47;2.58;;;22.30;62.10;;;;;;4987370;28;20062;-49
2023/09/21 08:08:57;;;;;;;4.28;2.22;;;22.30;61.90;;;;;;4991451;28;20053;-48
2023/09/21 08:11:25;;;;;;;4.88;2.83;;;22.40;61.90;;;;;;4992904;28;20034;-51
2023/09/21 08:13:52;;;;;;;3.20;2.67;;;22.40;61.50;;;;;;4984645;28;20050;-52
2023/09/21 08:16:18;;;;;;;5.78;2.25;;;22.50;61.50;;;;;;4991458;28;20069;-48
2023/09/21 08:18:45;;;;;;;2.33;1.90;;;22.50;61.30;;;;;;4990940;28;20050;-49
2023/09/21 08:21:14;;;;;;;3.65;2.38;;;22.60;61.20;;;;;;4992280;28;20082;-52
2023/09/21 08:23:42;;;;;;;4.68;3.03;;;22.60;61.20;;;;;;4988860;28;20047;-50
2023/09/21 08:26:09;;;;;;;3.55;2.20;;;22.60;62.00;;;;;;4990299;28;20125;-52
2023/09/21 08:28:38;;;;;;;2.70;1.77;;;22.70;61.30;;;;;;4991837;28;20043;-51
2023/09/21 08:31:04;;;;;;;3.00;1.90;;;22.70;61.20;;;;;;4991478;28;20042;-51
2023/09/21 08:33:31;;;;;;;8.15;2.25;;;22.80;61.20;;;;;;4987794;28;20034;-50
2023/09/21 08:35:58;;;;;;;3.30;1.88;;;22.80;61.00;;;;;;4988846;28;20058;-52
2023/09/21 08:38:26;;;;;;;2.10;1.80;;;22.90;61.20;;;;;;4989929;28;20107;-51
2023/09/21 08:40:53;;;;;;;2.25;1.75;;;22.90;60.80;;;;;;4987382;28;20129;-52
2023/09/21 08:43:24;;;;;;;3.17;1.75;;;22.90;60.50;;;;;;4986800;28;20049;-52
2023/09/21 08:45:52;;;;;;;2.80;1.90;;;23.00;60.30;;;;;;4989274;28;20043;-52
2023/09/21 08:48:23;;;;;;;2.47;1.90;;;23.00;60.10;;;;;;4991393;28;20121;-51
2023/09/21 08:50:53;;;;;;;1.70;1.50;;;23.00;59.90;;;;;;4989779;28;20046;-52
2023/09/21 08:53:22;;;;;;;5.82;2.40;;;23.00;59.70;;;;;;4991080;28;20042;-49
2023/09/21 08:55:55;;;;;;;6.18;1.65;;;23.10;60.00;;;;;;4988946;28;20121;-49
2023/09/21 08:58:23;;;;;;;1.63;1.40;;;23.10;59.90;;;;;;4987800;28;20077;-52
2023/09/21 09:00:55;;;;;;;2.25;1.30;;;23.20;59.70;;;;;;4990949;28;20039;-51
2023/09/21 09:03:25;;;;;;;2.45;1.35;;;23.20;59.80;;;;;;4984691;28;20042;-51
2023/09/21 09:05:55;;;;;;;1.63;1.15;;;23.20;59.80;;;;;;4986438;28;20041;-52
2023/09/21 09:08:22;;;;;;;1.65;1.52;;;23.20;59.70;;;;;;4988937;28;20046;-50
2023/09/21 09:10:50;;;;;;;1.52;1.10;;;23.20;59.50;;;;;;4988148;28;20133;-51
2023/09/21 09:13:17;;;;;;;3.38;1.92;;;23.30;59.40;;;;;;4991400;28;20066;-51
2023/09/21 09:15:45;;;;;;;2.58;1.25;;;23.30;59.40;;;;;;4990432;28;20125;-49
2023/09/21 09:18:14;;;;;;;1.27;1.17;;;23.40;59.40;;;;;;4988290;28;20050;-51
2023/09/21 09:20:44;;;;;;;1.75;1.17;;;23.40;59.50;;;;;;4991076;28;20129;-52
2023/09/21 09:23:13;;;;;;;1.33;1.13;;;23.50;59.40;;;;;;4990826;28;20081;-52
2023/09/21 09:25:40;;;;;;;1.73;1.40;;;23.50;59.60;;;;;;4987621;28;20530;-51
2023/09/21 09:28:08;;;;;;;2.05;1.25;;;23.60;59.50;;;;;;4989481;28;22198;-52
2023/09/21 09:30:38;;;;;;;1.67;1.58;;;23.70;59.50;;;;;;4986495;28;20094;-52
2023/09/21 09:33:09;;;;;;;1.30;1.20;;;23.80;59.30;;;;;;4986474;28;20074;-50
2023/09/21 09:35:38;;;;;;;1.70;1.20;;;23.90;59.20;;;;;;4985523;28;20153;-52
2023/09/21 09:38:09;;;;;;;1.42;1.02;;;24.00;58.60;;;;;;4988646;28;20121;-50
2023/09/21 09:40:37;;;;;;;1.45;1.35;;;24.10;58.70;;;;;;4991319;28;20042;-52
2023/09/21 09:43:07;;;;;;;1.75;1.30;;;24.10;58.40;;;;;;4986026;28;20484;-52
2023/09/21 09:45:38;;;;;;;1.15;1.10;;;24.20;58.60;;;;;;4982982;28;20129;-51
2023/09/21 09:48:16;;;;;;;1.90;1.00;;;24.30;58.50;;;;;;4988079;28;20500;-48
2023/09/21 09:50:47;;;;;;;2.97;1.40;;;24.30;58.30;;;;;;4983401;28;20049;-52
2023/09/21 09:53:17;;;;;;;1.70;1.20;;;24.30;58.10;;;;;;4986491;28;20528;-50
2023/09/21 09:55:46;;;;;;;1.83;1.60;;;24.40;58.20;;;;;;4986710;28;20050;-52
2023/09/21 09:58:15;;;;;;;2.33;0.82;;;24.40;57.90;;;;;;4990183;28;20109;-52
2023/09/21 10:00:44;;;;;;;2.78;1.58;;;24.40;57.80;;;;;;4986314;28;20555;-51
2023/09/21 10:03:12;;;;;;;1.00;0.90;;;24.50;57.70;;;;;;4979901;28;20046;-51
2023/09/21 10:05:41;;;;;;;2.05;1.23;;;24.50;57.80;;;;;;4979927;28;20054;-50
2023/09/21 10:08:08;;;;;;;2.17;1.30;;;24.50;58.00;;;;;;4982584;28;20038;-51
2023/09/21 10:10:42;;;;;;;3.42;0.90;;;24.50;57.70;;;;;;4987188;28;20129;-52
2023/09/21 10:13:10;;;;;;;1.08;0.98;;;24.50;57.70;;;;;;4989915;28;20054;-51
2023/09/21 10:15:37;;;;;;;1.75;1.40;;;24.50;57.80;;;;;;4990013;28;20080;-52
2023/09/21 10:18:04;;;;;;;1.45;1.20;;;24.50;57.50;;;;;;4989538;28;20680;-50
2023/09/21 10:20:32;;;;;;;2.65;1.13;;;24.50;57.70;;;;;;4985570;28;20129;-52
2023/09/21 10:23:03;;;;;;;2.72;1.00;;;24.50;58.00;;;;;;4979510;28;20031;-49
2023/09/21 10:25:43;;;;;;;0.98;0.90;;;24.50;58.20;;;;;;4982666;28;20054;-47
2023/09/21 10:28:41;;;;;;;1.42;0.90;;;24.50;57.80;;;;;;4988669;28;20070;-52
2023/09/21 10:31:18;;;;;;;2.35;1.50;;;24.50;58.10;;;;;;4978627;28;20085;-51
2023/09/21 10:34:05;;;;;;;1.25;1.00;;;24.60;58.20;;;;;;4982312;28;20122;-52
2023/09/21 10:36:32;;;;;;;5.28;1.30;;;24.70;58.30;;;;;;4977725;28;20113;-55
2023/09/21 10:39:24;;;;;;;1.15;0.98;;;24.70;57.80;;;;;;4988659;28;20133;-54
2023/09/21 10:41:53;;;;;;;1.75;0.90;;;24.80;58.00;;;;;;4985455;28;20053;-54
2023/09/21 10:44:55;;;;;;;1.10;1.00;;;24.90;57.70;;;;;;4988076;28;20125;-55
2023/09/21 10:47:28;;;;;;;;;;;24.90;57.50;;;;;;4978145;28;20041;-55
2023/09/21 10:49:57;;;;;;;1.30;0.90;;;25.00;57.50;;;;;;4973877;28;20025;-52
2023/09/21 10:52:28;;;;;;;1.25;1.15;;;25.00;57.20;;;;;;4975704;28;20076;-54
2023/09/21 10:54:55;;;;;;;1.23;1.10;;;25.00;57.00;;;;;;4979891;28;20137;-54
2023/09/21 10:57:24;;;;;;;2.55;1.30;;;25.00;57.10;;;;;;4972445;28;20043;-54
2023/09/21 10:59:52;;;;;;;1.27;1.17;;;25.00;57.10;;;;;;4978889;28;20054;-54
2023/09/21 11:02:40;;;;;;;2.35;1.20;;;25.00;57.10;;;;;;4988085;28;20045;-55
2023/09/21 11:05:08;;;;;;;2.15;1.52;;;25.00;56.80;;;;;;4981616;28;20117;-55
2023/09/21 11:07:36;;;;;;;2.10;1.02;;;25.00;56.70;;;;;;4979614;28;20053;-55
2023/09/21 11:10:06;;;;;;;1.38;1.08;;;25.00;56.90;;;;;;4989098;28;20467;-55
2023/09/21 11:12:34;;;;;;;1.42;1.23;;;25.00;56.90;;;;;;4986549;28;20055;-54
2023/09/21 11:15:06;;;;;;;2.47;1.30;;;25.00;56.90;;;;;;4978932;28;20513;-54
2023/09/21 11:17:34;;;;;;;2.33;1.15;;;25.00;56.60;;;;;;4987599;28;20091;-55
2023/09/21 11:20:02;;;;;;;1.75;0.90;;;25.00;57.00;;;;;;4988922;28;20042;-54
2023/09/21 11:22:29;;;;;;;1.58;1.15;;;25.00;57.20;;;;;;4982758;28;20497;-54
2023/09/21 11:24:56;;;;;;;2.22;1.33;;;25.00;56.80;;;;;;4980949;28;20110;-55
2023/09/21 11:27:27;;;;;;;2.33;1.35;;;25.00;56.50;;;;;;4989107;28;20058;-55
2023/09/21 11:29:55;;;;;;;3.70;1.48;;;25.00;56.50;;;;;;4987361;28;20539;-53
2023/09/21 11:32:22;;;;;;;1.50;1.10;;;25.00;56.70;;;;;;4979463;28;20061;-53
2023/09/21 11:34:57;;;;;;;2.13;1.10;;;25.00;57.00;;;;;;4985166;28;20066;-54
2023/09/21 11:37:28;;;;;;;1.73;1.58;;;25.00;56.90;;;;;;4988543;28;20038;-54
2023/09/21 11:39:55;;;;;;;1.42;1.30;;;25.00;56.90;;;;;;4989153;28;20050;-54
2023/09/21 11:42:25;;;;;;;1.67;1.02;;;25.00;56.70;;;;;;4988753;28;20042;-55
2023/09/21 11:44:52;;;;;;;1.13;1.02;;;25.00;56.90;;;;;;4981674;28;20046;-55
2023/09/21 11:47:22;;;;;;;1.05;0.95;;;25.00;56.70;;;;;;4982063;28;20449;-55
2023/09/21 11:49:53;;;;;;;1.95;1.25;;;25.00;56.70;;;;;;4982650;28;20050;-54
2023/09/21 11:52:22;;;;;;;2.10;1.20;;;25.10;57.20;;;;;;4988163;28;20105;-55
2023/09/21 11:54:52;;;;;;;1.98;1.13;;;25.10;57.10;;;;;;4991264;28;20348;-54
2023/09/21 11:57:19;;;;;;;1.40;1.30;;;25.10;57.30;;;;;;4978818;28;20057;-55
2023/09/21 11:59:46;;;;;;;2.00;1.23;;;25.10;57.00;;;;;;4989046;28;20118;-55
2023/09/21 12:02:14;;;;;;;2.90;1.40;;;25.20;56.90;;;;;;4992373;28;20445;-55
2023/09/21 12:04:43;;;;;;;1.42;1.02;;;25.20;56.70;;;;;;4989349;28;20043;-54
2023/09/21 12:07:11;;;;;;;1.75;1.10;;;25.20;56.40;;;;;;4981729;28;20046;-54
2023/09/21 12:09:40;;;;;;;1.60;1.25;;;25.30;56.30;;;;;;4991887;28;20047;-55
2023/09/21 12:12:09;;;;;;;2.28;1.23;;;25.30;56.70;;;;;;4990284;28;20093;-55
2023/09/21 12:14:36;;;;;;;2.28;1.05;;;25.30;56.40;;;;;;4992351;28;20050;-55
2023/09/21 12:17:09;;;;;;;2.40;1.85;;;25.20;56.00;;;;;;4992538;28;20113;-55
2023/09/21 12:19:37;;;;;;;1.77;1.10;;;25.20;56.60;;;;;;4986637;28;20430;-55
2023/09/21 12:22:05;;;;;;;2.65;1.20;;;25.10;56.90;;;;;;4989640;28;20117;-55
2023/09/21 12:24:35;;;;;;;2.95;1.10;;;25.10;57.20;;;;;;4982733;28;20047;-54
2023/09/21 12:27:06;;;;;;;2.35;1.48;;;25.10;57.00;;;;;;4990509;28;20065;-54
2023/09/21 12:29:34;;;;;;;1.55;1.20;;;25.00;56.70;;;;;;4990005;28;20047;-55
2023/09/21 12:32:04;;;;;;;2.33;1.30;;;24.90;56.50;;;;;;4989564;28;20038;-54
2023/09/21 12:34:34;;;;;;;1.35;1.25;;;24.80;56.90;;;;;;4981322;28;20469;-55
2023/09/21 12:37:01;;;;;;;1.33;1.23;;;24.70;57.40;;;;;;4990590;28;20079;-50
2023/09/21 12:39:28;;;;;;;2.03;1.08;;;24.60;57.80;;;;;;4991812;28;20492;-54
2023/09/21 12:41:55;;;;;;;2.70;2.00;;;24.50;58.50;;;;;;4991936;28;20050;-55
2023/09/21 12:44:22;;;;;;;2.50;1.33;;;24.40;58.60;;;;;;4989306;28;20038;-54
2023/09/21 12:46:50;;;;;;;2.22;1.42;;;24.30;59.40;;;;;;4985574;28;20129;-54
2023/09/21 12:49:17;;;;;;;2.13;1.40;;;24.30;59.90;;;;;;4991451;28;20042;-54
2023/09/21 12:51:44;;;;;;;4.72;1.58;;;24.20;60.20;;;;;;4991236;28;20065;-54
2023/09/21 12:54:11;;;;;;;2.53;1.35;;;24.10;60.90;;;;;;4990211;28;20125;-54
2023/09/21 12:56:38;;;;;;;2.78;1.83;;;24.10;60.90;;;;;;4978347;28;20051;-53
2023/09/21 12:59:05;;;;;;;2.22;1.55;;;24.00;61.40;;;;;;4989784;28;20117;-54